Winton Post Office, Australia
Current Conditions -  °F | °C
As of 6:00 AM on Friday 30 Jan 2015 (Local Time) from YLRE Reporting Station
Clear Clear  
Wind Chill: 77°   Ceiling: Unl
Heat Index: 79°   Visibility: 6mi
Dew Point: 63°   Wind: 8mph
Humidity: 61%   Direction: 90°E
Pressure: 29.74"   Gusts: NA
Location:  22.38°S, 143.03°E
Report Text: YLRE 292000Z 09007KT CAVOK 25/17 Q1007
Loading
Personal Weather Stations






























Interactive Weather Map New forecast layout! Learn more

10-Day Weather Forecast

Advertisements
Track Severe Weather on mobile